createdAt,value
2022-07-29T00:04:04.593Z,99262.56
2022-07-29T00:09:07.928Z,99265.75
2022-07-29T00:14:12.502Z,99257.78
2022-07-29T00:19:15.651Z,99263.84
2022-07-29T00:24:19.202Z,99251.88
2022-07-29T00:29:38.919Z,99232.03
2022-07-29T00:34:59.454Z,99233.56
2022-07-29T00:40:02.464Z,99230.94
2022-07-29T00:45:07.686Z,99234.25
2022-07-29T00:50:12.893Z,99229.03
2022-07-29T00:55:17.659Z,99226.22
2022-07-29T01:00:24.664Z,99202.16
2022-07-29T01:05:50.318Z,99199.06
2022-07-29T01:10:53.960Z,99206.94
2022-07-29T01:16:05.608Z,99203.50
2022-07-29T01:21:26.751Z,99200.84
2022-07-29T01:26:44.781Z,99187.88
2022-07-29T01:32:00.585Z,99186.91
2022-07-29T01:37:10.643Z,99188.19
2022-07-29T01:42:21.781Z,99180.44
2022-07-29T01:47:33.585Z,99182.91
2022-07-29T01:52:46.357Z,99180.97
2022-07-29T01:57:51.068Z,99179.22
2022-07-29T02:02:56.806Z,99181.69
2022-07-29T02:08:01.797Z,99174.97
2022-07-29T02:13:06.656Z,99174.25
2022-07-29T02:18:15.109Z,99170.47
2022-07-29T02:23:21.615Z,99162.41
2022-07-29T02:28:26.526Z,99163.78
2022-07-29T02:33:32.747Z,99166.00
2022-07-29T02:38:53.039Z,99167.50
2022-07-29T02:43:59.312Z,99163.06
2022-07-29T02:49:11.261Z,99163.53
2022-07-29T02:54:24.392Z,99156.59
2022-07-29T02:59:29.885Z,99156.88
2022-07-29T03:04:35.721Z,99163.75
2022-07-29T03:09:39.816Z,99152.63
2022-07-29T03:14:43.389Z,99155.19
2022-07-29T03:19:48.051Z,99153.22
2022-07-29T03:24:51.030Z,99160.56
2022-07-29T03:29:54.054Z,99161.81
2022-07-29T03:34:58.384Z,99153.44
2022-07-29T03:40:04.369Z,99144.00
2022-07-29T03:45:11.516Z,99138.56
2022-07-29T03:50:17.159Z,99142.78
2022-07-29T03:55:20.269Z,99143.13
2022-07-29T04:00:25.033Z,99148.16
2022-07-29T04:05:29.412Z,99146.06
2022-07-29T04:10:34.144Z,99149.66
2022-07-29T04:15:38.865Z,99146.06
2022-07-29T04:20:43.267Z,99150.41
2022-07-29T04:25:46.278Z,99144.84
2022-07-29T04:30:49.423Z,99148.00
2022-07-29T04:35:55.003Z,99155.00
2022-07-29T04:40:58.813Z,99153.22
2022-07-29T04:46:02.341Z,99156.63
2022-07-29T04:51:06.751Z,99156.22
2022-07-29T04:56:09.907Z,99149.06
2022-07-29T05:01:12.899Z,99147.22
2022-07-29T05:06:17.385Z,99135.47
2022-07-29T05:11:22.381Z,99146.22
2022-07-29T05:16:25.619Z,99142.91
2022-07-29T05:21:30.010Z,99137.34
2022-07-29T05:26:33.062Z,99144.56
2022-07-29T05:31:36.171Z,99143.16
2022-07-29T05:36:40.568Z,99144.81
2022-07-29T05:41:43.552Z,99146.06
2022-07-29T05:46:47.077Z,99148.59
2022-07-29T05:51:53.965Z,99146.81
2022-07-29T05:56:56.902Z,99141.47
2022-07-29T06:02:00.042Z,99150.66
2022-07-29T06:07:04.524Z,99155.00
2022-07-29T06:12:07.733Z,99151.03
2022-07-29T06:17:12.590Z,99150.09
2022-07-29T06:22:18.877Z,99147.72
2022-07-29T06:27:21.892Z,99143.72
2022-07-29T06:32:27.288Z,99152.50
2022-07-29T06:37:31.873Z,99158.91
2022-07-29T06:42:36.973Z,99158.38
2022-07-29T06:47:40.303Z,99170.28
2022-07-29T06:52:44.667Z,99166.09
2022-07-29T06:57:47.824Z,99166.88
2022-07-29T07:02:54.453Z,99158.88
2022-07-29T07:07:58.903Z,99163.94
2022-07-29T07:13:01.969Z,99162.78
2022-07-29T07:18:05.492Z,99163.97
2022-07-29T07:23:10.009Z,99166.28
2022-07-29T07:28:13.036Z,99166.06
2022-07-29T07:33:16.312Z,99169.66
2022-07-29T07:38:21.108Z,99163.19
2022-07-29T07:43:24.116Z,99158.53
2022-07-29T07:48:27.095Z,99155.16
2022-07-29T07:53:31.685Z,99151.53
2022-07-29T07:58:36.286Z,99144.84
2022-07-29T08:03:39.925Z,99138.66
2022-07-29T08:08:44.404Z,99129.28
2022-07-29T08:13:48.453Z,99118.88
2022-07-29T08:18:51.436Z,99126.72
2022-07-29T08:24:16.763Z,99124.09
2022-07-29T08:29:20.221Z,99116.69
2022-07-29T08:34:27.686Z,99125.13
2022-07-29T08:39:32.467Z,99121.78
2022-07-29T08:44:35.551Z,99113.94
2022-07-29T08:49:39.751Z,99117.63
2022-07-29T08:54:46.133Z,99125.59
2022-07-29T08:59:52.357Z,99111.47
2022-07-29T09:04:58.383Z,99124.56
2022-07-29T09:10:03.744Z,99103.13
2022-07-29T09:15:07.561Z,99098.44
2022-07-29T09:20:12.734Z,99086.25
2022-07-29T09:25:33.404Z,99090.44
2022-07-29T09:30:36.663Z,99086.84
2022-07-29T09:35:40.371Z,99083.91
2022-07-29T09:40:59.969Z,99085.22
2022-07-29T09:46:12.745Z,99081.66
2022-07-29T09:51:28.420Z,99089.22
2022-07-29T09:56:44.332Z,99081.75
2022-07-29T10:01:47.409Z,99080.63
2022-07-29T10:07:04.647Z,99076.81
2022-07-29T10:12:14.716Z,99067.63
2022-07-29T10:17:18.341Z,99068.66
2022-07-29T10:22:51.472Z,99065.06
2022-07-29T10:27:48.592Z,99064.28
2022-07-29T10:33:02.610Z,99064.06
2022-07-29T10:38:29.473Z,99062.50
2022-07-29T10:43:38.862Z,99059.81
2022-07-29T10:49:11.141Z,99050.38
2022-07-29T10:54:14.797Z,99045.31
2022-07-29T10:59:32.416Z,99054.28
2022-07-29T11:05:02.250Z,99046.19
2022-07-29T11:10:31.345Z,99052.84
2022-07-29T11:15:54.904Z,99050.91
2022-07-29T11:20:58.515Z,99043.25
2022-07-29T11:26:23.247Z,99042.03
2022-07-29T11:31:39.349Z,99031.78
2022-07-29T11:37:28.320Z,99033.66
2022-07-29T11:42:44.593Z,99033.66
2022-07-29T11:48:03.644Z,99036.63
2022-07-29T11:53:23.121Z,99032.00
2022-07-29T11:58:26.582Z,99026.84
2022-07-29T12:03:34.826Z,99032.94
2022-07-29T12:08:44.344Z,99022.78
2022-07-29T12:13:47.721Z,99026.41
2022-07-29T12:19:02.104Z,99027.94
2022-07-29T12:24:09.374Z,99011.66
2022-07-29T12:29:20.085Z,99012.78
2022-07-29T12:34:38.678Z,99013.59
2022-07-29T12:39:42.123Z,99010.13
2022-07-29T12:44:49.380Z,99007.84
2022-07-29T12:50:10.392Z,98995.63
2022-07-29T12:55:13.981Z,99007.66
2022-07-29T13:00:17.787Z,98998.84
2022-07-29T13:05:22.204Z,98994.31
2022-07-29T13:10:25.907Z,99000.41
2022-07-29T13:15:28.938Z,98986.47
2022-07-29T13:20:33.983Z,98993.00
2022-07-29T13:25:41.678Z,98991.47
2022-07-29T13:30:45.425Z,98989.47
2022-07-29T13:35:49.806Z,98977.94
2022-07-29T13:40:52.982Z,98981.19
2022-07-29T13:45:56.381Z,98973.69
2022-07-29T13:51:00.835Z,98971.47
2022-07-29T13:56:04.103Z,98977.13
2022-07-29T14:01:07.153Z,98965.41
2022-07-29T14:06:11.673Z,98964.78
2022-07-29T14:11:14.880Z,98947.47
2022-07-29T14:16:18.114Z,98951.63
2022-07-29T14:21:22.653Z,98947.69
2022-07-29T14:26:25.683Z,98937.53
2022-07-29T14:31:30.589Z,98942.41
2022-07-29T14:36:35.840Z,98948.53
2022-07-29T14:41:39.152Z,98953.47
2022-07-29T14:46:42.230Z,98949.50
2022-07-29T14:51:52.191Z,98952.81
2022-07-29T14:56:58.039Z,98960.38
2022-07-29T15:02:01.833Z,98954.03
2022-07-29T15:07:06.814Z,98949.69
2022-07-29T15:12:11.407Z,98949.13
2022-07-29T15:17:14.500Z,98947.41
2022-07-29T15:22:19.287Z,98946.53
2022-07-29T15:27:22.345Z,98946.66
2022-07-29T15:32:25.504Z,98935.16
2022-07-29T15:37:48.447Z,98936.84
2022-07-29T15:42:53.393Z,98927.41
2022-07-29T15:47:56.466Z,98937.66
2022-07-29T15:53:01.328Z,98921.81
2022-07-29T15:58:04.439Z,98913.38
2022-07-29T16:03:07.676Z,98913.59
2022-07-29T16:08:12.119Z,98918.66
2022-07-29T16:13:17.762Z,98913.00
2022-07-29T16:18:21.876Z,98906.19
2022-07-29T16:23:34.611Z,98899.63
2022-07-29T16:28:37.778Z,98903.00
2022-07-29T16:33:54.738Z,98908.78
2022-07-29T16:39:00.195Z,98902.44
2022-07-29T16:44:03.351Z,98903.97
2022-07-29T16:49:06.447Z,98900.72
2022-07-29T16:54:11.047Z,98903.28
2022-07-29T16:59:14.078Z,98908.13
2022-07-29T17:04:17.093Z,98905.19
2022-07-29T17:09:21.731Z,98891.97
2022-07-29T17:14:26.916Z,98897.38
2022-07-29T17:19:31.226Z,98898.50
2022-07-29T17:24:35.629Z,98892.25
2022-07-29T17:29:39.904Z,98894.94
2022-07-29T17:34:43.788Z,98894.38
2022-07-29T17:39:48.372Z,98892.94
2022-07-29T17:44:51.420Z,98895.97
2022-07-29T17:49:54.449Z,98902.47
2022-07-29T17:54:58.869Z,98889.53
2022-07-29T18:00:01.986Z,98885.94
2022-07-29T18:05:24.935Z,98890.78
2022-07-29T18:10:29.352Z,98890.88
2022-07-29T18:15:32.430Z,98896.63
2022-07-29T18:20:35.622Z,98903.31
2022-07-29T18:25:40.145Z,98907.00
2022-07-29T18:30:43.415Z,98906.38
2022-07-29T18:35:46.790Z,98919.22
2022-07-29T18:40:51.917Z,98902.47
2022-07-29T18:45:54.959Z,98902.81
2022-07-29T18:50:58.022Z,98901.59
2022-07-29T18:56:03.522Z,98900.75
2022-07-29T19:01:06.780Z,98911.03
2022-07-29T19:06:09.872Z,98911.97
2022-07-29T19:11:14.268Z,98935.63
2022-07-29T19:16:18.485Z,98934.03
2022-07-29T19:21:21.595Z,98934.28
2022-07-29T19:26:26.218Z,98945.53
2022-07-29T19:31:29.604Z,98939.31
2022-07-29T19:36:32.674Z,98940.78
2022-07-29T19:41:37.986Z,98955.66
2022-07-29T19:46:41.078Z,98955.66
2022-07-29T19:51:44.258Z,98954.47
2022-07-29T19:56:48.752Z,98962.75
2022-07-29T20:01:52.826Z,98969.28
2022-07-29T20:07:01.318Z,98970.00
2022-07-29T20:12:06.836Z,98962.38
2022-07-29T20:17:10.007Z,98964.22
2022-07-29T20:22:14.484Z,98956.91
2022-07-29T20:27:26.830Z,98962.16
2022-07-29T20:32:29.863Z,98959.56
2022-07-29T20:37:32.893Z,98972.69
2022-07-29T20:42:56.788Z,98963.69
2022-07-29T20:47:59.844Z,98964.91
2022-07-29T20:53:02.866Z,98964.84
2022-07-29T20:58:07.307Z,98977.94
2022-07-29T21:03:10.348Z,98969.78
2022-07-29T21:08:13.342Z,98985.06
2022-07-29T21:13:17.742Z,98991.63
2022-07-29T21:18:28.098Z,98971.03
2022-07-29T21:23:31.195Z,98964.28
2022-07-29T21:28:40.194Z,98974.75
2022-07-29T21:33:45.146Z,98972.47
2022-07-29T21:38:48.131Z,98973.44
2022-07-29T21:43:52.535Z,98971.00
2022-07-29T21:48:57.530Z,98967.25
2022-07-29T21:54:00.606Z,98963.41
2022-07-29T21:59:04.993Z,98964.22
2022-07-29T22:04:13.013Z,98971.31
2022-07-29T22:09:16.057Z,98970.09
2022-07-29T22:14:20.494Z,98968.88
2022-07-29T22:19:23.729Z,98970.22
2022-07-29T22:24:30.782Z,98975.00
2022-07-29T22:29:35.171Z,98979.41
2022-07-29T22:34:38.197Z,98970.00
2022-07-29T22:39:41.322Z,98964.19
2022-07-29T22:44:45.678Z,98961.94
2022-07-29T22:49:48.669Z,98954.63
2022-07-29T22:54:51.745Z,98957.09
2022-07-29T22:59:56.080Z,98953.66
2022-07-29T23:04:59.084Z,98955.38
2022-07-29T23:10:02.188Z,98954.84
2022-07-29T23:15:07.235Z,98954.34
2022-07-29T23:20:11.373Z,98987.03
2022-07-29T23:25:17.922Z,98981.00
2022-07-29T23:30:22.338Z,98980.63
2022-07-29T23:35:26.560Z,98991.53
2022-07-29T23:40:29.740Z,98993.31
2022-07-29T23:45:44.833Z,98986.59
2022-07-29T23:50:51.749Z,98992.41
2022-07-29T23:55:54.807Z,98993.56
